Time;durP1;ratioP1;P1;durP2;ratioP2;P2;SDS_P1;SDS_P2;PMS_P1;PMS_P2;Temp;Humidity;BMP_temperature;BMP_pressure;BME280_temperature;BME280_humidity;BME280_pressure;Samples;Min_cycle;Max_cycle;Signal;HPM_P1;HPM_P2
2022/01/13 00:00:18;;;;;;;23.67;17.50;;;1.80;99.90;;;;;;5013914;28;20909;-52
2022/01/13 00:02:45;;;;;;;24.43;18.17;;;1.90;99.90;;;;;;5013738;28;20569;-54
2022/01/13 00:05:11;;;;;;;24.93;17.83;;;1.90;99.90;;;;;;5013404;28;20450;-54
2022/01/13 00:07:37;;;;;;;26.63;19.53;;;2.00;99.90;;;;;;5013594;28;20430;-53
2022/01/13 00:10:04;;;;;;;27.03;19.37;;;1.90;99.90;;;;;;5013467;28;20487;-53
2022/01/13 00:12:35;;;;;;;30.80;21.70;;;1.70;99.90;;;;;;5012289;28;20216;-51
2022/01/13 00:15:20;;;;;;;27.87;20.70;;;1.60;99.90;;;;;;5011472;28;20447;-51
2022/01/13 00:23:38;;;;;;;31.70;21.27;;;1.50;99.90;;;;;;5013507;28;20435;-51
2022/01/13 00:25:35;;;;;;;29.33;21.47;;;1.50;99.90;;;;;;5012831;28;20462;-51
2022/01/13 00:28:05;;;;;;;30.07;21.00;;;1.60;99.90;;;;;;5010539;28;20773;-53
2022/01/13 00:30:31;;;;;;;28.60;20.53;;;1.60;99.90;;;;;;4989252;28;20423;-53
2022/01/13 00:32:57;;;;;;;29.27;21.03;;;1.40;99.90;;;;;;4993651;28;20433;-54
2022/01/13 00:35:23;;;;;;;29.97;21.07;;;1.30;99.90;;;;;;4992279;28;20759;-50
2022/01/13 00:37:48;;;;;;;27.43;20.03;;;1.30;99.90;;;;;;4993296;28;20228;-52
2022/01/13 00:40:14;;;;;;;28.60;19.97;;;1.40;99.90;;;;;;4991493;28;20181;-54
2022/01/13 00:42:40;;;;;;;25.53;19.00;;;1.50;99.90;;;;;;4993479;28;20197;-50
2022/01/13 00:45:08;;;;;;;26.63;20.13;;;1.50;99.90;;;;;;4992821;28;20199;-50
2022/01/13 00:47:36;;;;;;;29.40;20.03;;;1.50;99.90;;;;;;4993182;28;20176;-51
2022/01/13 00:50:02;;;;;;;26.13;18.83;;;1.60;99.90;;;;;;4993399;28;20408;-51
2022/01/13 00:52:28;;;;;;;25.23;18.77;;;1.60;99.90;;;;;;4992873;28;20910;-54
2022/01/13 00:54:53;;;;;;;24.70;18.80;;;1.70;99.90;;;;;;4993070;28;20475;-56
2022/01/13 00:57:19;;;;;;;25.37;18.13;;;1.80;99.90;;;;;;4993130;28;20180;-53
2022/01/13 00:59:45;;;;;;;27.90;19.77;;;1.80;99.90;;;;;;4993306;28;20177;-51
2022/01/13 01:02:10;;;;;;;25.00;18.53;;;1.70;99.90;;;;;;4993009;28;20199;-56
2022/01/13 01:04:36;;;;;;;25.90;18.53;;;1.60;99.90;;;;;;4992819;28;20181;-53
2022/01/13 01:07:01;;;;;;;27.00;19.17;;;1.50;99.90;;;;;;4993011;28;20665;-54
2022/01/13 01:10:02;;;;;;;24.37;19.20;;;1.50;99.90;;;;;;4992944;28;20208;-49
2022/01/13 01:12:19;;;;;;;24.60;17.87;;;1.40;99.90;;;;;;4989634;28;20223;-53
2022/01/13 01:14:49;;;;;;;24.17;18.17;;;1.40;99.90;;;;;;4991809;28;20409;-54
2022/01/13 01:17:16;;;;;;;24.17;17.50;;;1.50;99.90;;;;;;4992988;28;20173;-50
2022/01/13 01:19:48;;;;;;;24.87;18.30;;;1.60;99.90;;;;;;4992799;28;20420;-53
2022/01/13 01:27:20;;;;;;;24.73;18.23;;;1.80;99.90;;;;;;4992798;28;20432;-54
2022/01/13 01:29:54;;;;;;;23.93;17.13;;;1.90;99.90;;;;;;4992705;28;20176;-57
2022/01/13 01:32:20;;;;;;;25.13;18.30;;;1.80;99.90;;;;;;4992611;28;20427;-53
2022/01/13 01:37:17;;;;;;;25.83;17.33;;;1.70;99.90;;;;;;4992482;28;20182;-51
2022/01/13 01:39:47;;;;;;;22.77;17.50;;;1.70;99.90;;;;;;4992488;28;20158;-52
2022/01/13 01:42:12;;;;;;;22.27;16.60;;;1.70;99.90;;;;;;4992362;28;20532;-57
2022/01/13 01:44:43;;;;;;;26.27;17.33;;;1.60;99.90;;;;;;4992261;28;20488;-51
2022/01/13 01:47:13;;;;;;;24.23;16.83;;;1.60;99.90;;;;;;4991640;28;20177;-53
2022/01/13 01:49:44;;;;;;;24.07;17.47;;;1.60;99.90;;;;;;4992340;28;20409;-52
2022/01/13 01:52:13;;;;;;;24.00;17.60;;;1.50;99.90;;;;;;4992432;28;20424;-51
2022/01/13 01:54:39;;;;;;;20.97;16.40;;;1.40;99.90;;;;;;4992062;28;20404;-54
2022/01/13 01:57:06;;;;;;;23.73;17.87;;;1.20;99.90;;;;;;4992296;28;20412;-51
2022/01/13 01:59:34;;;;;;;25.07;18.93;;;0.90;99.90;;;;;;4992316;28;20733;-55
2022/01/13 02:02:00;;;;;;;24.77;17.97;;;0.70;99.90;;;;;;4992086;28;20428;-50
2022/01/13 02:04:27;;;;;;;23.63;17.27;;;0.70;99.90;;;;;;4991906;28;20893;-54
2022/01/13 02:06:54;;;;;;;25.50;18.53;;;0.90;99.90;;;;;;4992198;28;20240;-49
2022/01/13 02:09:21;;;;;;;24.10;18.27;;;1.00;99.90;;;;;;4991542;28;20424;-53
2022/01/13 02:11:52;;;;;;;25.57;17.97;;;1.00;99.90;;;;;;4991858;28;20518;-53
2022/01/13 02:16:55;;;;;;;23.77;19.07;;;1.20;99.90;;;;;;4992426;28;20436;-51
2022/01/13 02:19:24;;;;;;;24.93;18.50;;;1.30;99.90;;;;;;4991771;28;20944;-54
2022/01/13 02:21:49;;;;;;;28.10;19.03;;;1.30;99.90;;;;;;4991982;28;20964;-50
2022/01/13 02:24:15;;;;;;;25.00;18.67;;;1.30;99.90;;;;;;4991616;28;20404;-50
2022/01/13 02:26:40;;;;;;;24.03;18.47;;;1.30;99.90;;;;;;4992098;28;20193;-51
2022/01/13 02:29:06;;;;;;;23.73;17.83;;;1.40;99.90;;;;;;4991280;28;20264;-53
2022/01/13 02:31:32;;;;;;;23.47;17.97;;;1.60;99.90;;;;;;4991220;28;20737;-55
2022/01/13 02:33:57;;;;;;;24.17;17.70;;;1.70;99.90;;;;;;4991739;28;20169;-48
2022/01/13 02:36:23;;;;;;;24.77;18.10;;;1.70;99.90;;;;;;4992053;28;20524;-53
2022/01/13 02:38:54;;;;;;;21.87;15.83;;;1.70;99.90;;;;;;4992067;28;20212;-51
2022/01/13 02:41:24;;;;;;;22.47;16.97;;;1.80;99.90;;;;;;4991838;28;20436;-53
2022/01/13 02:43:58;;;;;;;23.30;16.93;;;1.80;99.90;;;;;;4992039;28;20466;-51
2022/01/13 02:48:59;;;;;;;21.37;16.37;;;1.80;99.90;;;;;;4991815;28;20423;-54
2022/01/13 02:51:27;;;;;;;21.97;16.87;;;1.80;99.90;;;;;;4991915;28;20427;-52
2022/01/13 02:53:52;;;;;;;23.33;16.97;;;1.70;99.90;;;;;;4991952;28;20899;-54
2022/01/13 02:56:18;;;;;;;22.03;16.23;;;1.60;99.90;;;;;;4991528;28;20452;-51
2022/01/13 02:58:45;;;;;;;22.33;16.90;;;1.40;99.90;;;;;;4993851;28;20176;-52
2022/01/13 03:01:11;;;;;;;22.70;17.27;;;1.30;99.90;;;;;;4995034;28;20189;-50
2022/01/13 03:03:38;;;;;;;22.47;17.40;;;1.30;99.90;;;;;;4993816;28;20416;-53
2022/01/13 03:06:10;;;;;;;21.83;16.80;;;1.30;99.90;;;;;;4994989;28;20444;-53
2022/01/13 03:08:37;;;;;;;22.70;16.70;;;1.70;99.90;;;;;;4995220;28;20436;-50
2022/01/13 03:11:04;;;;;;;21.50;16.27;;;1.60;99.90;;;;;;4995035;28;20738;-51
2022/01/13 03:13:30;;;;;;;23.93;17.70;;;1.50;99.90;;;;;;4995125;28;20397;-49
2022/01/13 03:15:56;;;;;;;21.93;16.77;;;1.60;99.90;;;;;;4994979;28;20424;-54
2022/01/13 03:18:22;;;;;;;22.80;17.57;;;1.70;99.90;;;;;;4995002;28;20578;-50
2022/01/13 03:20:47;;;;;;;23.80;16.83;;;1.80;99.90;;;;;;4995008;28;20408;-49
2022/01/13 03:23:17;;;;;;;23.90;17.60;;;1.80;99.90;;;;;;4994807;28;20232;-53
2022/01/13 03:25:45;;;;;;;25.53;18.07;;;1.90;99.90;;;;;;4994597;28;20570;-50
2022/01/13 03:28:15;;;;;;;23.23;16.77;;;1.80;99.90;;;;;;4994612;28;20852;-50
2022/01/13 03:30:42;;;;;;;23.57;18.07;;;1.80;99.90;;;;;;4994960;28;20459;-49
2022/01/13 03:33:08;;;;;;;24.60;18.03;;;1.90;99.90;;;;;;4994650;28;20870;-52
2022/01/13 03:35:36;;;;;;;24.37;19.07;;;1.90;99.90;;;;;;4994425;28;20492;-50
2022/01/13 03:38:02;;;;;;;24.87;18.20;;;1.90;99.90;;;;;;4994665;28;20255;-51
2022/01/13 03:40:28;;;;;;;22.67;17.30;;;2.00;99.90;;;;;;4993290;28;20440;-50
2022/01/13 03:42:53;;;;;;;24.13;17.73;;;2.00;99.90;;;;;;4994638;28;20421;-49
2022/01/13 03:45:20;;;;;;;25.37;18.90;;;2.10;99.90;;;;;;4993620;28;20200;-50
2022/01/13 03:47:46;;;;;;;25.73;18.93;;;2.20;99.90;;;;;;4994544;28;20169;-50
2022/01/13 03:50:13;;;;;;;25.50;18.27;;;2.20;99.90;;;;;;4994439;28;20408;-50
2022/01/13 03:52:57;;;;;;;24.73;18.87;;;2.20;99.90;;;;;;4994616;28;20201;-49
2022/01/13 03:55:40;;;;;;;26.00;19.10;;;2.00;99.90;;;;;;4993944;28;20463;-54
2022/01/13 03:58:42;;;;;;;28.20;19.40;;;1.90;99.90;;;;;;4994379;28;20782;-50
2022/01/13 04:01:32;;;;;;;25.57;18.67;;;1.80;99.90;;;;;;4993800;28;20424;-49
2022/01/13 04:03:57;;;;;;;25.90;18.50;;;1.70;99.90;;;;;;4994163;28;20407;-53
2022/01/13 04:06:23;;;;;;;28.83;20.30;;;1.70;99.90;;;;;;4994146;28;20456;-50
2022/01/13 04:08:50;;;;;;;24.97;18.50;;;1.70;99.90;;;;;;4992834;28;20213;-50
2022/01/13 04:16:18;;;;;;;24.53;19.00;;;1.90;99.90;;;;;;4955636;29;20422;-87
2022/01/13 04:18:46;;;;;;;25.47;18.47;;;1.90;99.90;;;;;;4939226;29;20418;-88
2022/01/13 04:21:11;;;;;;;25.50;19.03;;;1.90;99.90;;;;;;4939366;29;20990;-87
2022/01/13 04:23:37;;;;;;;27.00;20.37;;;1.90;99.90;;;;;;4933614;29;20525;-87
2022/01/13 04:26:05;;;;;;;27.80;20.43;;;2.00;99.90;;;;;;4938141;29;20206;-88
2022/01/13 04:28:35;;;;;;;26.63;19.73;;;2.10;99.90;;;;;;4936779;29;20186;-86
2022/01/13 04:31:01;;;;;;;27.03;20.57;;;2.10;99.90;;;;;;4920011;29;21057;-88
2022/01/13 04:33:32;;;;;;;28.17;19.93;;;2.10;99.90;;;;;;4930961;29;20423;-86
2022/01/13 04:35:59;;;;;;;26.43;19.90;;;2.10;99.90;;;;;;4938205;29;20974;-85
2022/01/13 04:38:24;;;;;;;28.20;20.47;;;2.10;99.90;;;;;;4938359;29;20960;-87
2022/01/13 04:40:55;;;;;;;27.37;19.27;;;2.00;99.90;;;;;;4937535;29;20514;-86
2022/01/13 04:43:23;;;;;;;26.33;19.87;;;2.00;99.90;;;;;;4924993;29;20564;-87
2022/01/13 04:45:50;;;;;;;26.43;19.67;;;1.90;99.90;;;;;;4919438;29;20496;-89
2022/01/13 04:48:16;;;;;;;28.33;20.53;;;3.20;99.90;;;;;;4919788;29;20419;-89
2022/01/13 04:50:43;;;;;;;29.43;21.10;;;3.30;99.90;;;;;;4919334;29;20415;-86
2022/01/13 04:53:09;;;;;;;29.10;20.17;;;1.90;99.90;;;;;;4919406;29;20422;-88
2022/01/13 04:55:36;;;;;;;26.73;19.40;;;1.90;99.90;;;;;;4919322;29;20423;-88
2022/01/13 04:58:03;;;;;;;27.83;20.20;;;1.90;99.90;;;;;;4942903;29;20414;-88
2022/01/13 05:00:30;;;;;;;32.00;21.00;;;1.90;99.90;;;;;;4927021;29;20426;-87
2022/01/13 05:02:56;;;;;;;27.03;19.90;;;2.00;99.90;;;;;;4935306;29;20510;-86
2022/01/13 05:05:23;;;;;;;26.93;19.97;;;2.10;99.90;;;;;;4919332;29;20550;-87
2022/01/13 05:07:49;;;;;;;29.27;20.70;;;2.00;99.90;;;;;;4919038;29;20594;-87
2022/01/13 05:10:15;;;;;;;28.37;20.93;;;2.10;99.90;;;;;;4918892;29;20809;-87
2022/01/13 05:12:42;;;;;;;27.77;20.67;;;2.10;99.90;;;;;;4935928;29;20487;-86
2022/01/13 05:15:16;;;;;;;28.77;21.07;;;2.10;99.90;;;;;;4936436;29;20748;-87
2022/01/13 05:20:16;;;;;;;27.93;20.93;;;2.70;99.90;;;;;;4936464;29;20444;-88
2022/01/13 05:22:42;;;;;;;28.30;20.97;;;2.20;99.90;;;;;;4918825;29;20421;-86
2022/01/13 05:25:08;;;;;;;27.70;21.00;;;3.60;99.90;;;;;;4919449;29;20455;-87
2022/01/13 05:27:33;;;;;;;27.67;20.60;;;2.10;99.90;;;;;;4919860;29;20210;-88
2022/01/13 05:30:02;;;;;;;28.83;21.30;;;3.20;99.90;;;;;;4919455;29;20473;-86
2022/01/13 05:32:27;;;;;;;29.93;21.03;;;2.00;99.90;;;;;;4931708;29;20214;-88
2022/01/13 05:34:53;;;;;;;27.70;20.37;;;2.00;99.90;;;;;;4919883;29;20471;-87
2022/01/13 05:37:18;;;;;;;29.10;20.93;;;2.00;99.90;;;;;;4919215;29;20655;-87
2022/01/13 05:39:44;;;;;;;30.43;21.10;;;2.10;99.90;;;;;;4918903;29;20214;-87
2022/01/13 05:42:10;;;;;;;28.00;19.97;;;2.10;99.90;;;;;;4918834;29;20175;-87
2022/01/13 05:44:38;;;;;;;28.73;20.27;;;2.80;99.90;;;;;;4918585;29;20172;-89
2022/01/13 05:47:09;;;;;;;26.80;19.83;;;2.20;99.90;;;;;;4920603;29;20211;-87
2022/01/13 05:49:36;;;;;;;27.43;20.50;;;3.20;99.90;;;;;;4928908;29;20423;-86
2022/01/13 05:52:03;;;;;;;30.90;21.43;;;2.20;99.90;;;;;;4929934;29;20426;-89
2022/01/13 05:54:29;;;;;;;26.60;19.33;;;2.20;99.90;;;;;;4922868;29;20434;-85
2022/01/13 05:56:54;;;;;;;26.87;19.23;;;2.20;99.90;;;;;;4935308;29;20907;-88
2022/01/13 05:59:21;;;;;;;26.83;19.03;;;2.20;99.90;;;;;;4923721;29;20263;-86
2022/01/13 06:01:47;;;;;;;25.90;18.83;;;2.10;99.90;;;;;;4918456;29;20179;-87
2022/01/13 06:04:12;;;;;;;28.80;20.50;;;2.10;99.90;;;;;;4920031;29;20415;-87
2022/01/13 06:06:38;;;;;;;30.37;20.57;;;2.10;99.90;;;;;;4934446;29;20207;-87
2022/01/13 06:09:04;;;;;;;27.47;19.50;;;2.80;99.90;;;;;;4937705;29;20504;-88
2022/01/13 06:11:37;;;;;;;26.33;19.97;;;2.10;99.90;;;;;;4937768;29;20170;-89
2022/01/13 06:14:04;;;;;;;29.63;20.70;;;2.60;99.90;;;;;;4936277;29;20284;-89
2022/01/13 06:16:29;;;;;;;30.17;20.87;;;2.50;99.90;;;;;;4937134;29;20418;-88
2022/01/13 06:18:55;;;;;;;29.63;20.40;;;1.90;99.90;;;;;;4936284;29;20450;-87
2022/01/13 06:21:21;;;;;;;28.97;20.53;;;1.90;99.90;;;;;;4952461;29;20561;-87
2022/01/13 06:23:46;;;;;;;30.20;20.50;;;1.80;99.90;;;;;;4931859;29;20175;-88
2022/01/13 06:26:12;;;;;;;28.40;21.27;;;1.80;99.90;;;;;;4936893;29;20202;-88
2022/01/13 06:28:39;;;;;;;29.67;20.17;;;1.80;99.90;;;;;;4937210;29;20270;-88
2022/01/13 06:31:05;;;;;;;29.90;21.13;;;1.80;99.90;;;;;;4937220;29;20179;-85
2022/01/13 06:33:31;;;;;;;28.20;20.97;;;1.80;99.90;;;;;;4939370;29;20457;-85
2022/01/13 06:35:57;;;;;;;28.87;20.63;;;2.50;99.90;;;;;;4940325;29;20415;-87
2022/01/13 06:38:23;;;;;;;27.83;20.43;;;1.70;99.90;;;;;;4940672;29;20175;-87
2022/01/13 06:40:50;;;;;;;27.67;19.33;;;1.70;99.90;;;;;;4939515;29;20194;-86
2022/01/13 06:43:16;;;;;;;31.27;21.77;;;1.60;99.90;;;;;;4956424;29;20414;-86
2022/01/13 06:45:42;;;;;;;26.40;18.10;;;1.60;99.90;;;;;;4957460;29;20442;-87
2022/01/13 06:48:08;;;;;;;29.13;20.83;;;1.70;99.90;;;;;;4940452;29;20411;-88
2022/01/13 06:50:35;;;;;;;27.70;19.87;;;1.30;99.90;;;;;;4940693;29;20174;-85
2022/01/13 06:53:00;;;;;;;29.23;20.40;;;1.00;99.90;;;;;;4940213;29;20418;-88
2022/01/13 06:55:26;;;;;;;29.90;21.33;;;0.80;99.90;;;;;;4939987;29;20902;-86
2022/01/13 06:57:52;;;;;;;29.70;21.63;;;0.70;99.90;;;;;;4947524;29;20651;-87
2022/01/13 07:00:19;;;;;;;29.30;20.30;;;1.50;99.90;;;;;;4921437;29;20213;-87
2022/01/13 07:02:45;;;;;;;30.77;21.93;;;0.90;99.90;;;;;;4935437;29;20434;-85
2022/01/13 07:05:11;;;;;;;29.37;21.17;;;1.10;99.90;;;;;;4939589;29;20453;-86
2022/01/13 07:07:39;;;;;;;31.50;21.67;;;0.90;99.90;;;;;;4940179;29;20453;-86
2022/01/13 07:10:07;;;;;;;35.57;23.87;;;0.80;99.90;;;;;;4937009;29;21120;-88
2022/01/13 07:12:33;;;;;;;33.83;22.83;;;0.90;99.90;;;;;;4925026;29;20442;-87
2022/01/13 07:14:59;;;;;;;31.77;22.13;;;1.10;99.90;;;;;;4945801;29;20764;-86
2022/01/13 07:17:25;;;;;;;30.53;21.57;;;1.30;99.90;;;;;;4935278;29;20175;-85
2022/01/13 07:19:54;;;;;;;32.03;21.57;;;2.80;99.90;;;;;;4946283;29;20524;-88
2022/01/13 07:22:19;;;;;;;28.83;20.87;;;1.50;99.90;;;;;;4951095;29;20465;-85
2022/01/13 07:24:46;;;;;;;32.27;22.07;;;1.60;99.90;;;;;;4938299;29;20815;-88
2022/01/13 07:27:12;;;;;;;30.73;21.70;;;2.60;99.90;;;;;;4937787;29;20185;-86
2022/01/13 07:29:39;;;;;;;30.43;21.23;;;1.70;99.90;;;;;;4946623;29;20483;-86
2022/01/13 07:32:06;;;;;;;31.83;22.13;;;1.80;99.90;;;;;;4956632;29;20867;-88
2022/01/13 07:34:32;;;;;;;29.33;21.03;;;1.80;99.90;;;;;;4939219;29;20889;-85
2022/01/13 07:36:57;;;;;;;30.07;21.50;;;1.90;99.90;;;;;;4939299;29;20434;-85
2022/01/13 07:39:23;;;;;;;31.23;21.30;;;1.90;99.90;;;;;;4956538;29;20178;-86
2022/01/13 07:41:49;;;;;;;31.07;22.10;;;1.90;99.90;;;;;;4939163;29;20185;-86
2022/01/13 07:44:17;;;;;;;31.10;21.20;;;1.90;99.90;;;;;;4934581;29;20175;-87
2022/01/13 07:46:43;;;;;;;31.67;21.73;;;1.90;99.90;;;;;;4948205;29;20207;-86
2022/01/13 07:49:09;;;;;;;31.33;21.23;;;1.90;99.90;;;;;;4950394;29;20831;-87
2022/01/13 07:51:34;;;;;;;31.10;21.00;;;1.90;99.90;;;;;;4937728;29;20176;-86
2022/01/13 07:54:01;;;;;;;31.27;21.57;;;2.00;99.90;;;;;;4920974;29;20740;-86
2022/01/13 07:56:28;;;;;;;30.77;21.67;;;2.00;99.90;;;;;;4920204;29;20505;-87
2022/01/13 07:58:54;;;;;;;30.30;21.50;;;3.40;99.90;;;;;;4937053;29;20466;-87
2022/01/13 08:01:20;;;;;;;33.43;22.70;;;1.90;99.90;;;;;;4936022;29;20418;-87
2022/01/13 08:03:46;;;;;;;32.90;21.83;;;1.90;99.90;;;;;;4950532;29;20497;-88
2022/01/13 08:06:12;;;;;;;32.57;22.30;;;1.90;99.90;;;;;;4938354;29;20199;-89
2022/01/13 08:08:38;;;;;;;31.90;21.40;;;1.90;99.90;;;;;;4927041;29;20178;-88
2022/01/13 08:11:05;;;;;;;33.03;23.17;;;1.90;99.90;;;;;;4938625;29;20179;-87
2022/01/13 08:13:31;;;;;;;30.87;21.70;;;2.00;99.90;;;;;;4956134;29;20429;-88
2022/01/13 08:16:00;;;;;;;30.53;21.47;;;2.00;99.90;;;;;;4935728;29;20434;-89
2022/01/13 08:21:10;;;;;;;34.33;23.27;;;2.00;99.90;;;;;;4943150;29;20435;-86
2022/01/13 08:23:36;;;;;;;33.80;22.97;;;2.00;99.90;;;;;;4940146;29;20422;-85
2022/01/13 08:26:02;;;;;;;33.57;22.37;;;3.40;99.90;;;;;;4938817;29;20205;-90
2022/01/13 08:28:28;;;;;;;59.10;37.10;;;2.10;99.90;;;;;;4938717;29;20178;-88
2022/01/13 08:30:56;;;;;;;137.87;68.63;;;2.10;99.90;;;;;;4938341;29;20510;-86
2022/01/13 08:33:22;;;;;;;113.90;66.80;;;2.10;99.90;;;;;;4932055;29;20187;-86
2022/01/13 08:35:49;;;;;;;68.63;44.63;;;2.10;99.90;;;;;;4936007;29;20426;-87
2022/01/13 08:38:18;;;;;;;83.13;50.57;;;2.20;99.90;;;;;;4938126;29;20473;-87
2022/01/13 08:40:47;;;;;;;44.00;29.73;;;2.70;99.90;;;;;;4943138;29;20761;-87
2022/01/13 08:43:14;;;;;;;56.90;36.37;;;2.30;99.90;;;;;;4937304;29;20440;-90
2022/01/13 08:45:43;;;;;;;51.70;34.23;;;3.50;99.90;;;;;;4952142;29;20938;-87
2022/01/13 08:48:09;;;;;;;87.13;57.10;;;2.20;99.90;;;;;;4927140;29;20425;-87
2022/01/13 08:50:36;;;;;;;56.40;40.47;;;2.70;99.90;;;;;;4930151;29;20414;-90
2022/01/13 08:53:02;;;;;;;42.93;30.30;;;2.90;99.90;;;;;;4938911;29;21143;-88
2022/01/13 08:55:28;;;;;;;70.93;40.03;;;3.40;99.90;;;;;;4955329;28;20446;-88
2022/01/13 08:57:53;;;;;;;161.63;92.67;;;2.40;99.90;;;;;;4936507;29;20422;-90
2022/01/13 09:00:19;;;;;;;204.47;111.77;;;2.10;99.90;;;;;;4934696;29;20264;-87
2022/01/13 09:02:45;;;;;;;115.70;63.93;;;2.10;99.90;;;;;;4938578;29;20179;-88
2022/01/13 09:05:14;;;;;;;42.63;28.07;;;2.10;99.90;;;;;;4938748;29;20550;-89
2022/01/13 09:07:40;;;;;;;72.27;50.33;;;2.00;99.90;;;;;;4938462;29;20186;-87
2022/01/13 09:10:06;;;;;;;124.63;91.70;;;2.10;99.90;;;;;;4939056;29;20784;-86
2022/01/13 09:12:32;;;;;;;46.07;29.70;;;2.20;99.90;;;;;;4936920;29;20445;-87
2022/01/13 09:15:03;;;;;;;32.80;21.53;;;2.70;99.90;;;;;;4937125;29;20427;-87
2022/01/13 09:17:32;;;;;;;34.93;23.87;;;2.20;99.90;;;;;;4934016;29;20182;-88
2022/01/13 09:19:58;;;;;;;35.57;23.13;;;2.20;99.90;;;;;;4955743;29;20891;-87
2022/01/13 09:22:24;;;;;;;36.00;24.67;;;2.20;99.90;;;;;;4938624;29;20407;-88
2022/01/13 09:24:50;;;;;;;38.10;23.90;;;2.30;99.90;;;;;;4939287;29;20500;-88
2022/01/13 09:27:21;;;;;;;35.37;23.60;;;2.40;99.90;;;;;;4941845;29;20174;-87
2022/01/13 09:29:47;;;;;;;36.87;23.43;;;2.40;99.90;;;;;;4924863;29;20269;-87
2022/01/13 09:32:13;;;;;;;33.50;22.10;;;2.50;99.90;;;;;;4941103;29;20446;-86
2022/01/13 09:34:41;;;;;;;35.67;22.53;;;2.50;99.90;;;;;;4939804;29;20187;-85
2022/01/13 09:37:07;;;;;;;35.13;23.37;;;2.50;99.90;;;;;;4930286;29;20174;-85
2022/01/13 09:39:33;;;;;;;34.90;23.60;;;2.40;99.90;;;;;;4957996;29;20167;-85
2022/01/13 09:42:00;;;;;;;35.33;23.60;;;2.20;99.90;;;;;;4958953;29;20599;-86
2022/01/13 09:44:28;;;;;;;32.43;21.13;;;1.90;99.90;;;;;;4940479;29;21003;-86
2022/01/13 09:46:53;;;;;;;39.33;23.70;;;3.30;99.90;;;;;;4937332;29;20454;-88
2022/01/13 09:49:19;;;;;;;35.10;23.57;;;1.90;99.90;;;;;;4931758;29;20430;-85
2022/01/13 09:51:45;;;;;;;35.33;23.13;;;1.80;99.90;;;;;;4952705;29;20174;-87
2022/01/13 09:54:12;;;;;;;32.53;21.97;;;1.70;99.90;;;;;;4937291;29;20641;-87
2022/01/13 09:56:39;;;;;;;36.70;22.93;;;1.90;99.90;;;;;;4936617;29;20183;-86
2022/01/13 09:59:06;;;;;;;34.53;23.10;;;2.90;99.90;;;;;;4936686;29;20425;-86
2022/01/13 10:01:32;;;;;;;33.27;22.37;;;2.00;99.90;;;;;;4937299;29;20418;-86
2022/01/13 10:03:58;;;;;;;36.87;22.63;;;2.00;99.90;;;;;;4936097;29;20446;-86
2022/01/13 10:06:24;;;;;;;34.67;22.37;;;2.10;99.90;;;;;;4932976;29;20462;-88
2022/01/13 10:08:54;;;;;;;33.80;22.67;;;1.90;99.90;;;;;;4931833;29;20585;-87
2022/01/13 10:11:44;;;;;;;35.20;22.23;;;1.70;99.90;;;;;;4936830;29;20177;-87
2022/01/13 10:16:22;;;;;;;37.97;23.07;;;2.60;99.90;;;;;;4933848;29;20445;-87
2022/01/13 10:17:06;;;;;;;35.17;22.97;;;1.80;99.90;;;;;;4938489;29;20426;-89
2022/01/13 10:19:33;;;;;;;39.20;25.10;;;1.90;99.90;;;;;;4938279;29;20422;-87
2022/01/13 10:22:05;;;;;;;37.33;24.47;;;1.70;99.90;;;;;;4953737;29;20926;-90
2022/01/13 10:24:33;;;;;;;39.83;25.37;;;1.70;99.90;;;;;;4933989;29;20461;-87
2022/01/13 10:27:02;;;;;;;39.07;25.83;;;1.30;99.90;;;;;;4938370;29;20465;-86
2022/01/13 10:29:47;;;;;;;39.33;25.63;;;1.10;99.90;;;;;;4956775;29;20418;-87
2022/01/13 10:32:24;;;;;;;40.87;25.83;;;0.90;99.90;;;;;;4934090;29;20505;-86
2022/01/13 10:34:58;;;;;;;39.10;24.53;;;0.70;99.90;;;;;;4952171;29;20426;-86
2022/01/13 10:37:36;;;;;;;41.17;26.53;;;0.80;99.90;;;;;;4939311;29;20493;-87
2022/01/13 10:40:17;;;;;;;42.17;26.93;;;1.00;99.90;;;;;;4940922;29;20422;-87
2022/01/13 10:45:32;;;;;;;40.90;26.63;;;1.30;99.90;;;;;;4957630;29;20461;-86
2022/01/13 10:48:15;;;;;;;46.87;29.10;;;1.30;99.90;;;;;;4940570;29;20520;-87
2022/01/13 10:51:07;;;;;;;49.23;32.47;;;1.50;99.90;;;;;;4953825;29;20429;-87
2022/01/13 10:53:40;;;;;;;56.20;42.77;;;1.70;99.90;;;;;;4934841;29;20775;-86
2022/01/13 10:56:18;;;;;;;50.20;32.13;;;1.90;99.90;;;;;;4939936;29;20744;-88
2022/01/13 10:58:53;;;;;;;41.13;26.43;;;2.10;99.90;;;;;;4940910;29;20946;-86
2022/01/13 11:01:19;;;;;;;41.73;26.47;;;2.00;99.90;;;;;;4940046;29;20202;-85
2022/01/13 11:03:46;;;;;;;41.60;27.33;;;1.80;99.90;;;;;;4940284;29;20493;-87
2022/01/13 11:06:13;;;;;;;46.23;27.97;;;1.50;99.90;;;;;;4936749;29;20224;-88
2022/01/13 11:08:47;;;;;;;47.13;28.90;;;1.60;99.90;;;;;;4951808;29;20744;-87
2022/01/13 11:11:21;;;;;;;45.57;28.60;;;1.60;99.90;;;;;;4935781;29;20430;-85
2022/01/13 11:14:07;;;;;;;44.17;28.83;;;1.60;99.90;;;;;;4932929;29;20448;-86
2022/01/13 11:16:34;;;;;;;48.67;30.13;;;1.50;99.90;;;;;;4932004;29;20437;-87
2022/01/13 11:18:59;;;;;;;49.03;29.10;;;1.50;99.90;;;;;;4934137;29;20429;-85
2022/01/13 11:21:28;;;;;;;44.57;28.50;;;2.90;99.90;;;;;;4936645;29;20787;-86
2022/01/13 11:23:55;;;;;;;45.93;29.17;;;1.30;99.90;;;;;;4947508;29;20180;-86
2022/01/13 11:26:26;;;;;;;43.60;27.73;;;1.20;99.90;;;;;;4931623;29;20446;-85
2022/01/13 11:28:58;;;;;;;47.90;29.63;;;1.20;99.90;;;;;;4936113;29;20928;-86
2022/01/13 11:31:24;;;;;;;46.30;29.00;;;1.10;99.90;;;;;;4931045;29;20459;-89
2022/01/13 11:33:50;;;;;;;46.93;28.07;;;0.90;99.90;;;;;;4938526;29;20419;-88
2022/01/13 11:36:17;;;;;;;53.53;30.93;;;0.90;99.90;;;;;;4933941;29;20431;-87
2022/01/13 11:38:57;;;;;;;48.57;30.07;;;1.00;99.90;;;;;;4937039;29;20422;-87
2022/01/13 11:41:23;;;;;;;46.77;28.83;;;1.00;99.90;;;;;;4938228;29;20430;-87
2022/01/13 11:43:50;;;;;;;41.97;26.57;;;1.30;99.90;;;;;;4936395;29;20917;-88
2022/01/13 11:46:19;;;;;;;44.83;28.60;;;1.50;99.90;;;;;;4939055;29;20197;-87
2022/01/13 11:48:57;;;;;;;43.73;26.70;;;1.60;99.90;;;;;;4936909;29;20195;-88
2022/01/13 11:51:23;;;;;;;41.93;27.07;;;1.60;99.90;;;;;;4940529;29;20423;-87
2022/01/13 11:53:55;;;;;;;44.20;26.73;;;1.60;99.90;;;;;;4935364;29;20418;-85
2022/01/13 11:56:22;;;;;;;45.67;28.33;;;2.60;99.90;;;;;;4931070;29;20214;-87
2022/01/13 11:58:48;;;;;;;43.70;28.10;;;1.50;99.90;;;;;;4937593;29;20814;-90
2022/01/13 12:01:24;;;;;;;45.37;28.17;;;1.60;99.90;;;;;;4955269;29;20511;-86
2022/01/13 12:03:56;;;;;;;45.57;29.20;;;1.70;99.90;;;;;;4939504;29;20531;-87
2022/01/13 12:06:51;;;;;;;43.20;26.53;;;2.50;99.90;;;;;;4938453;29;20464;-86
2022/01/13 12:09:38;;;;;;;42.37;27.07;;;1.90;99.90;;;;;;4971147;23;20563;-65
2022/01/13 12:12:04;;;;;;;41.60;28.20;;;2.20;99.90;;;;;;4971833;28;20786;-65
2022/01/13 12:14:30;;;;;;;42.83;28.03;;;2.40;99.90;;;;;;4973527;28;20166;-65
2022/01/13 12:16:59;;;;;;;42.63;27.00;;;2.60;99.90;;;;;;4973110;28;20187;-65
2022/01/13 12:19:40;;;;;;;41.90;26.10;;;2.70;99.90;;;;;;4953931;28;20269;-63
2022/01/13 12:22:11;;;;;;;40.80;26.47;;;2.70;99.90;;;;;;4961945;28;20187;-64
2022/01/13 12:24:46;;;;;;;42.43;27.73;;;2.90;99.90;;;;;;4958507;28;20627;-64
2022/01/13 12:27:12;;;;;;;39.90;26.03;;;2.90;99.90;;;;;;4968022;28;20225;-64
2022/01/13 12:30:04;;;;;;;40.10;26.57;;;2.90;99.90;;;;;;4961395;28;20182;-64
2022/01/13 12:32:33;;;;;;;44.17;29.10;;;3.00;99.90;;;;;;4968725;28;20185;-65
2022/01/13 12:34:59;;;;;;;43.30;27.80;;;3.00;99.90;;;;;;4973897;28;20170;-62
2022/01/13 12:37:26;;;;;;;41.03;26.70;;;3.00;99.90;;;;;;4973602;28;20198;-62
2022/01/13 12:40:01;;;;;;;42.33;27.73;;;3.10;99.90;;;;;;4974033;28;20166;-65
2022/01/13 12:42:31;;;;;;;42.17;27.50;;;3.10;99.90;;;;;;4973297;28;20166;-63
2022/01/13 12:47:42;;;;;;;44.93;28.57;;;3.20;99.90;;;;;;4973976;28;20197;-63
2022/01/13 12:50:31;;;;;;;43.27;28.97;;;3.30;99.90;;;;;;4973590;28;20170;-63
2022/01/13 12:53:06;;;;;;;43.47;28.90;;;3.40;99.90;;;;;;4973526;28;20218;-63
2022/01/13 12:55:32;;;;;;;46.13;30.30;;;3.50;99.90;;;;;;4964063;28;20174;-64
2022/01/13 12:57:58;;;;;;;43.97;30.33;;;3.60;99.90;;;;;;4966420;28;20727;-64
2022/01/13 13:00:24;;;;;;;45.93;31.10;;;3.70;99.90;;;;;;4971289;28;20213;-65
2022/01/13 13:02:51;;;;;;;45.63;30.37;;;3.70;99.90;;;;;;4957772;28;20182;-63
2022/01/13 13:05:38;;;;;;;47.93;30.37;;;3.70;99.90;;;;;;4953712;29;20202;-64
2022/01/13 13:08:05;;;;;;;40.47;27.57;;;3.60;99.90;;;;;;4912455;29;20230;-64
2022/01/13 13:10:31;;;;;;;45.30;29.97;;;3.60;99.90;;;;;;4897912;29;20631;-62
2022/01/13 13:13:00;;;;;;;45.50;29.10;;;3.60;99.90;;;;;;4912350;29;20215;-63
2022/01/13 13:17:54;;;;;;;42.47;28.00;;;3.60;99.90;;;;;;4911477;29;20196;-63